Time;durP1;ratioP1;P1;durP2;ratioP2;P2;SDS_P1;SDS_P2;PMS_P1;PMS_P2;Temp;Humidity;BMP_temperature;BMP_pressure;BME280_temperature;BME280_humidity;BME280_pressure;Samples;Min_cycle;Max_cycle;Signal;HPM_P1;HPM_P2
2023/01/14 00:01:21;;;;;;;19.15;5.07;;;;;;;8.18;99.65;101340.22;4691349;30;20392;-69
2023/01/14 00:03:50;;;;;;;18.95;5.40;;;;;;;8.18;99.92;101340.22;4720193;30;20107;-71
2023/01/14 00:06:20;;;;;;;14.38;4.47;;;;;;;8.21;99.91;101337.06;4720012;30;20114;-70
2023/01/14 00:08:54;;;;;;;13.98;4.57;;;;;;;8.21;99.90;101340.59;4705614;30;20498;-70
2023/01/14 00:12:07;;;;;;;14.77;4.22;;;;;;;8.21;99.55;101343.31;4719959;30;20063;-71
2023/01/14 00:14:10;;;;;;;16.75;4.82;;;;;;;8.18;99.35;101360.06;4717275;30;20140;-70
2023/01/14 00:16:38;;;;;;;17.45;5.10;;;;;;;8.18;99.24;101359.22;4720232;30;20096;-71
2023/01/14 00:19:06;;;;;;;15.98;4.55;;;;;;;8.16;99.55;101361.38;4716692;30;20053;-71
2023/01/14 00:21:34;;;;;;;16.52;4.57;;;;;;;8.15;98.64;101359.72;4702873;30;20147;-71
2023/01/14 00:24:02;;;;;;;14.60;4.22;;;;;;;8.13;99.48;101362.69;4718076;30;20060;-70
2023/01/14 00:26:30;;;;;;;16.52;4.63;;;;;;;8.15;99.19;101365.97;4690040;30;20132;-70
2023/01/14 00:28:58;;;;;;;11.88;4.00;;;;;;;8.14;99.59;101363.50;4697363;30;20057;-70
2023/01/14 00:31:27;;;;;;;15.43;4.22;;;;;;;8.15;99.48;101381.44;4689771;30;20064;-70
2023/01/14 00:33:57;;;;;;;16.08;4.75;;;;;;;8.16;99.11;101381.19;4690061;30;20418;-70
2023/01/14 00:36:26;;;;;;;15.50;4.75;;;;;;;8.16;99.26;101372.25;4675519;30;20089;-70
2023/01/14 00:38:54;;;;;;;15.07;4.55;;;;;;;8.18;99.38;101370.94;4685495;30;20550;-70
2023/01/14 00:41:26;;;;;;;17.48;4.55;;;;;;;8.16;98.99;101361.38;4727265;30;20067;-71
2023/01/14 00:43:56;;;;;;;18.52;4.65;;;;;;;8.14;99.55;101358.06;4727347;30;20053;-70
2023/01/14 00:46:29;;;;;;;18.50;5.35;;;;;;;8.09;99.48;101362.31;4729076;30;20188;-69
2023/01/14 00:48:59;;;;;;;15.23;5.03;;;;;;;8.08;99.59;101362.53;4731295;30;20049;-69
2023/01/14 00:51:28;;;;;;;16.33;4.78;;;;;;;8.08;99.33;101365.25;4719694;30;20053;-70
2023/01/14 00:53:58;;;;;;;15.30;4.93;;;;;;;8.06;99.14;101368.22;4738885;30;20041;-70
2023/01/14 00:56:27;;;;;;;24.75;5.15;;;;;;;8.06;98.87;101357.38;4739164;30;20067;-63
2023/01/14 00:58:56;;;;;;;18.48;5.20;;;;;;;8.07;99.02;101375.31;4733614;30;20060;-69
2023/01/14 01:01:24;;;;;;;15.70;4.95;;;;;;;8.07;98.59;101374.47;4730843;30;20068;-69
2023/01/14 01:03:55;;;;;;;17.70;5.25;;;;;;;8.06;99.04;101370.13;4693503;30;20060;-70
2023/01/14 01:06:24;;;;;;;18.05;5.88;;;;;;;8.03;98.70;101379.56;4705152;30;20462;-70
2023/01/14 01:08:58;;;;;;;24.55;5.85;;;;;;;8.02;99.04;101372.47;4690579;30;20133;-70
2023/01/14 01:11:26;;;;;;;17.75;4.93;;;;;;;7.99;98.81;101386.53;4715247;30;20486;-69
2023/01/14 01:13:55;;;;;;;16.35;4.72;;;;;;;7.97;98.08;101396.78;4716235;30;20079;-70
2023/01/14 01:16:26;;;;;;;23.98;5.85;;;;;;;7.93;98.24;101401.03;4687501;30;20531;-70
2023/01/14 01:18:55;;;;;;;17.27;5.78;;;;;;;7.93;99.05;101400.22;4716389;30;20061;-70
2023/01/14 01:21:24;;;;;;;18.00;5.60;;;;;;;7.92;98.66;101398.56;4679109;30;20057;-69
2023/01/14 01:23:52;;;;;;;20.48;5.78;;;;;;;7.91;99.07;101389.56;4719687;30;20418;-71
2023/01/14 01:26:22;;;;;;;17.10;5.05;;;;;;;7.90;99.43;101390.66;4704503;30;20061;-71
2023/01/14 01:28:52;;;;;;;19.80;6.03;;;;;;;7.87;99.30;101386.53;4704980;30;20462;-71
2023/01/14 01:31:21;;;;;;;23.60;6.30;;;;;;;7.82;99.50;101375.56;4717742;30;20134;-71
2023/01/14 01:33:49;;;;;;;20.25;5.95;;;;;;;7.82;99.22;101377.47;4718833;30;20111;-71
2023/01/14 01:36:21;;;;;;;21.42;5.57;;;;;;;7.79;99.75;101381.47;4690558;30;20072;-70
2023/01/14 01:38:50;;;;;;;23.60;6.13;;;;;;;7.80;99.94;101379.56;4704571;30;20061;-70
2023/01/14 01:41:24;;;;;;;20.48;5.70;;;;;;;7.77;100.00;101371.88;4704409;30;20049;-71
2023/01/14 01:44:08;;;;;;;21.38;6.20;;;;;;;7.76;100.00;101381.09;4703764;30;20499;-70
2023/01/14 01:46:37;;;;;;;17.77;5.60;;;;;;;7.74;100.00;101369.66;4704367;30;20057;-71
2023/01/14 01:49:20;;;;;;;23.17;6.00;;;;;;;7.74;100.00;101367.75;4720112;30;20111;-70
2023/01/14 01:52:01;;;;;;;23.08;6.47;;;;;;;7.75;100.00;101376.75;4718635;30;20111;-71
2023/01/14 01:54:41;;;;;;;15.40;4.63;;;;;;;7.75;100.00;101371.31;4721516;30;20072;-71
2023/01/14 01:57:11;;;;;;;26.30;6.40;;;;;;;7.73;100.00;101373.44;4706676;30;20062;-71
2023/01/14 01:59:41;;;;;;;20.25;6.22;;;;;;;7.75;100.00;101379.47;4706219;30;20057;-71
2023/01/14 02:02:09;;;;;;;18.52;5.53;;;;;;;7.73;100.00;101370.72;4719100;30;20068;-71
2023/01/14 02:04:38;;;;;;;20.08;5.25;;;;;;;7.69;100.00;101376.59;4717271;30;20057;-71
2023/01/14 02:07:23;;;;;;;25.40;6.43;;;;;;;7.66;100.00;101373.53;4703926;30;20099;-71
2023/01/14 02:09:59;;;;;;;18.10;5.57;;;;;;;7.66;100.00;101377.06;4703237;30;20065;-71
2023/01/14 02:12:57;;;;;;;24.83;6.53;;;;;;;7.66;100.00;101360.81;4703414;30;20151;-70
2023/01/14 02:15:46;;;;;;;23.17;5.95;;;;;;;7.66;100.00;101352.66;4717305;30;20115;-70
2023/01/14 02:18:37;;;;;;;21.88;5.95;;;;;;;7.67;100.00;101357.06;4669327;30;20057;-70
2023/01/14 02:21:23;;;;;;;19.30;5.63;;;;;;;7.67;100.00;101339.94;4676328;30;20070;-70
2023/01/14 02:24:13;;;;;;;21.33;5.82;;;;;;;7.66;100.00;101341.81;4667325;30;20058;-71
2023/01/14 02:26:44;;;;;;;22.75;6.05;;;;;;;7.65;100.00;101334.75;4680959;30;20058;-71
2023/01/14 02:29:36;;;;;;;22.65;5.90;;;;;;;7.63;100.00;101326.03;4667483;30;20059;-71
2023/01/14 02:32:27;;;;;;;20.25;5.60;;;;;;;7.65;100.00;101323.91;4680486;30;20062;-71
2023/01/14 02:35:26;;;;;;;21.38;6.35;;;;;;;7.65;100.00;101318.47;4680285;30;20460;-70
2023/01/14 02:38:16;;;;;;;21.15;5.75;;;;;;;7.69;100.00;101307.97;4680498;30;20059;-70
2023/01/14 02:41:13;;;;;;;25.40;5.88;;;;;;;7.62;100.00;101302.66;4679763;30;20055;-70
2023/01/14 02:44:10;;;;;;;20.13;6.43;;;;;;;7.62;100.00;101293.72;4672565;30;20065;-70
2023/01/14 02:46:58;;;;;;;21.48;5.57;;;;;;;7.59;100.00;101292.31;4682707;30;20102;-70
2023/01/14 02:49:31;;;;;;;19.42;6.00;;;;;;;7.56;100.00;101273.78;4683466;30;20496;-70
2023/01/14 02:51:59;;;;;;;19.63;5.63;;;;;;;7.58;100.00;101284.41;4683108;30;20519;-70
2023/01/14 02:54:29;;;;;;;18.98;5.45;;;;;;;7.57;100.00;101282.75;4678529;30;20070;-70
2023/01/14 02:57:27;;;;;;;24.55;6.10;;;;;;;7.55;100.00;101285.72;4680237;30;20488;-71
2023/01/14 03:00:17;;;;;;;21.73;5.68;;;;;;;7.57;100.00;101286.28;4667079;30;20135;-70
2023/01/14 03:02:51;;;;;;;16.92;5.25;;;;;;;7.55;100.00;101280.28;4669027;30;20504;-70
2023/01/14 03:05:24;;;;;;;24.73;6.22;;;;;;;7.55;100.00;101276.72;4693050;30;20054;-69
2023/01/14 03:07:55;;;;;;;22.77;5.93;;;;;;;7.54;100.00;101277.81;4651591;30;20511;-70
2023/01/14 03:10:35;;;;;;;23.08;6.25;;;;;;;7.50;100.00;101282.03;4669165;30;20485;-70
2023/01/14 03:13:08;;;;;;;22.75;6.75;;;;;;;7.50;100.00;101276.63;4693183;30;20149;-70
2023/01/14 03:15:48;;;;;;;22.10;6.13;;;;;;;7.49;100.00;101261.44;4683719;30;20605;-70
2023/01/14 03:18:16;;;;;;;23.38;5.53;;;;;;;7.51;100.00;101257.41;4696908;30;20061;-70
2023/01/14 03:20:52;;;;;;;19.65;5.22;;;;;;;7.51;100.00;101259.31;4696730;30;20066;-70
2023/01/14 03:23:22;;;;;;;21.35;6.03;;;;;;;7.51;100.00;101248.47;4682314;30;20132;-71
2023/01/14 03:25:52;;;;;;;18.17;5.45;;;;;;;7.51;100.00;101249.28;4682929;30;20054;-70
2023/01/14 03:28:31;;;;;;;17.00;5.15;;;;;;;7.53;100.00;101255.28;4684301;30;20424;-70
2023/01/14 03:31:02;;;;;;;25.08;6.18;;;;;;;7.51;100.00;101243.84;4677855;30;20042;-70
2023/01/14 03:33:51;;;;;;;20.08;5.95;;;;;;;7.45;100.00;101248.31;4678724;30;20501;-69
2023/01/14 03:36:20;;;;;;;22.98;5.88;;;;;;;7.44;100.00;101241.25;4673335;30;20055;-70
2023/01/14 03:39:18;;;;;;;20.05;5.35;;;;;;;7.49;100.00;101243.28;4669753;30;20080;-70
2023/01/14 03:44:37;;;;;;;20.15;5.18;;;;;;;7.49;100.00;101228.91;4677744;30;20081;-70
2023/01/14 03:47:05;;;;;;;21.95;5.50;;;;;;;7.50;100.00;101228.63;4696739;30;20551;-69
2023/01/14 03:49:33;;;;;;;19.25;5.43;;;;;;;7.49;100.00;101229.72;4683825;30;20138;-71
2023/01/14 03:52:10;;;;;;;21.55;5.35;;;;;;;7.51;100.00;101229.47;4696566;30;20061;-70
2023/01/14 03:54:43;;;;;;;22.17;5.22;;;;;;;7.47;100.00;101216.38;4692683;30;20065;-72
2023/01/14 03:57:32;;;;;;;20.17;5.55;;;;;;;7.52;100.00;101215.66;4679218;30;20137;-70
2023/01/14 04:00:31;;;;;;;16.67;4.80;;;;;;;7.55;100.00;101214.38;4665155;30;20082;-71
2023/01/14 04:03:01;;;;;;;18.10;4.85;;;;;;;7.54;100.00;101208.13;4665708;30;20496;-71
2023/01/14 04:05:29;;;;;;;19.38;5.10;;;;;;;7.56;100.00;101211.44;4693886;30;20058;-70
2023/01/14 04:07:57;;;;;;;22.45;5.95;;;;;;;7.55;100.00;101201.66;4679244;30;20488;-70
2023/01/14 04:10:25;;;;;;;17.58;5.53;;;;;;;7.57;100.00;101194.09;4680007;30;20434;-71
2023/01/14 04:15:39;;;;;;;;;;;;;;;7.55;100.00;101188.09;4682790;30;20058;-70
2023/01/14 04:18:06;;;;;;;19.80;5.47;;;;;;;7.55;100.00;101188.09;4698453;30;20368;-71
2023/01/14 04:20:34;;;;;;;19.00;4.45;;;;;;;7.55;100.00;101177.25;4684605;30;20574;-70
2023/01/14 04:23:02;;;;;;;24.63;5.43;;;;;;;7.51;100.00;101170.66;4698936;30;20053;-64
2023/01/14 04:25:30;;;;;;;20.52;5.28;;;;;;;7.52;100.00;101168.75;4704242;30;20085;-70
2023/01/14 04:27:57;;;;;;;24.02;5.90;;;;;;;7.50;100.00;101163.56;4697418;30;20058;-68
2023/01/14 04:30:25;;;;;;;18.08;6.00;;;;;;;7.53;100.00;101165.81;4702263;30;20058;-65
2023/01/14 04:32:52;;;;;;;18.92;5.45;;;;;;;7.52;100.00;101160.63;4698534;30;20058;-69
2023/01/14 04:35:20;;;;;;;19.60;5.55;;;;;;;7.48;100.00;101152.16;4712969;30;20053;-70
2023/01/14 04:37:50;;;;;;;19.60;4.97;;;;;;;7.47;100.00;101145.06;4687843;30;20080;-70
2023/01/14 04:40:18;;;;;;;20.33;5.43;;;;;;;7.46;100.00;101138.00;4687437;30;20060;-71
2023/01/14 04:42:49;;;;;;;26.13;5.85;;;;;;;7.48;100.00;101138.59;4685364;30;20152;-70
2023/01/14 04:45:18;;;;;;;18.75;4.88;;;;;;;7.50;100.00;101136.44;4685915;30;20042;-69
2023/01/14 04:47:50;;;;;;;23.05;5.32;;;;;;;7.51;100.00;101121.03;4639970;30;20055;-71
2023/01/14 04:50:41;;;;;;;16.63;4.30;;;;;;;7.52;100.00;101122.66;4668858;30;20058;-71
2023/01/14 04:53:09;;;;;;;17.10;4.78;;;;;;;7.52;100.00;101114.53;4667911;30;20121;-70
2023/01/14 04:55:39;;;;;;;17.27;3.90;;;;;;;7.50;100.00;101117.47;4685256;30;20082;-70
2023/01/14 04:58:09;;;;;;;22.67;5.03;;;;;;;7.50;100.00;101120.19;4684257;30;20073;-70
2023/01/14 05:00:37;;;;;;;20.95;4.85;;;;;;;7.54;100.00;101121.34;4685144;30;20058;-71
2023/01/14 05:03:06;;;;;;;20.85;5.38;;;;;;;7.53;100.00;101117.00;4699257;30;20062;-70
2023/01/14 05:05:35;;;;;;;12.85;3.78;;;;;;;7.65;100.00;101111.56;4684924;30;20054;-70
2023/01/14 05:08:07;;;;;;;13.20;3.70;;;;;;;7.89;100.00;101106.84;4695527;30;20133;-71
2023/01/14 05:10:34;;;;;;;18.83;5.22;;;;;;;7.77;100.00;101100.63;4667398;30;20065;-70
2023/01/14 05:13:02;;;;;;;16.20;4.35;;;;;;;7.80;100.00;101101.00;4667874;30;20058;-69
2023/01/14 05:15:32;;;;;;;15.02;3.67;;;;;;;7.85;100.00;101097.53;4671838;30;20102;-70
2023/01/14 05:18:00;;;;;;;15.35;3.80;;;;;;;7.87;100.00;101088.09;4695565;30;20077;-70
2023/01/14 05:20:28;;;;;;;15.18;4.07;;;;;;;8.00;100.00;101078.00;4685499;30;20097;-70
2023/01/14 05:23:01;;;;;;;15.60;4.15;;;;;;;8.17;100.00;101075.31;4670563;30;20068;-70
2023/01/14 05:25:31;;;;;;;20.98;5.28;;;;;;;8.10;100.00;101070.03;4641567;30;20081;-70
2023/01/14 05:28:00;;;;;;;14.35;3.90;;;;;;;8.20;100.00;101070.22;4669357;30;20058;-70
2023/01/14 05:30:28;;;;;;;15.50;4.50;;;;;;;8.19;100.00;101060.41;4667769;30;20153;-70
2023/01/14 05:32:56;;;;;;;10.35;3.38;;;;;;;8.07;100.00;101056.97;4695030;30;20058;-69
2023/01/14 05:35:24;;;;;;;17.25;4.35;;;;;;;8.06;100.00;101052.63;4670266;30;20054;-72
2023/01/14 05:37:52;;;;;;;7.88;2.70;;;;;;;8.19;100.00;101035.19;4697808;30;20058;-71
2023/01/14 05:40:20;;;;;;;9.45;3.22;;;;;;;8.38;100.00;101036.56;4685808;30;20088;-71
2023/01/14 05:45:48;;;;;;;18.38;5.00;;;;;;;7.95;100.00;101019.03;4683443;30;20050;-71
2023/01/14 05:48:21;;;;;;;17.08;4.10;;;;;;;8.01;100.00;101004.50;4683789;30;20113;-71
2023/01/14 05:50:53;;;;;;;18.67;4.93;;;;;;;7.93;100.00;100996.75;4694792;30;20058;-71
2023/01/14 05:53:22;;;;;;;12.43;3.65;;;;;;;8.10;100.00;100988.63;4677878;30;20129;-71
2023/01/14 05:55:50;;;;;;;12.00;3.63;;;;;;;7.85;100.00;100979.00;4698490;30;20137;-70
2023/01/14 05:58:19;;;;;;;17.33;5.15;;;;;;;7.69;100.00;100983.34;4669995;30;20085;-71
2023/01/14 06:06:28;;;;;;;15.23;4.45;;;;;;;7.66;100.00;100959.44;4700042;30;20514;-71
2023/01/14 06:09:00;;;;;;;20.60;5.40;;;;;;;7.64;100.00;100958.84;4686126;30;20133;-70
2023/01/14 06:11:29;;;;;;;14.90;4.13;;;;;;;7.55;100.00;100952.19;4701596;30;20065;-75
2023/01/14 06:13:57;;;;;;;19.08;5.43;;;;;;;7.45;100.00;100952.00;4703119;30;20089;-75
2023/01/14 06:16:27;;;;;;;20.92;5.45;;;;;;;7.65;100.00;100946.13;4691570;30;20069;-73
2023/01/14 06:18:55;;;;;;;19.10;5.30;;;;;;;7.53;100.00;100938.06;4704079;30;20049;-76
2023/01/14 06:21:32;;;;;;;15.88;4.85;;;;;;;7.51;100.00;100942.91;4705197;30;20049;-75
2023/01/14 06:24:00;;;;;;;16.88;4.63;;;;;;;7.64;100.00;100937.16;4722280;30;20069;-75
2023/01/14 06:26:28;;;;;;;17.10;4.57;;;;;;;7.63;100.00;100924.66;4718580;30;20427;-75
2023/01/14 06:28:58;;;;;;;18.63;4.40;;;;;;;7.62;100.00;100922.19;4719329;30;20542;-75
2023/01/14 06:31:28;;;;;;;21.33;4.90;;;;;;;7.67;100.00;100925.84;4721923;30;20131;-76
2023/01/14 06:33:56;;;;;;;16.45;3.97;;;;;;;7.73;100.00;100915.06;4719098;30;20082;-74
2023/01/14 06:36:24;;;;;;;21.55;4.30;;;;;;;7.92;100.00;100910.22;4689864;30;20060;-74
2023/01/14 06:38:53;;;;;;;17.20;4.55;;;;;;;7.96;100.00;100895.91;4689525;30;20056;-74
2023/01/14 06:41:21;;;;;;;14.48;4.18;;;;;;;8.03;100.00;100893.00;4699520;30;20573;-74
2023/01/14 06:43:49;;;;;;;13.07;3.50;;;;;;;7.89;100.00;100890.66;4686382;30;20054;-75
2023/01/14 06:46:18;;;;;;;18.65;4.60;;;;;;;7.85;100.00;100880.53;4717751;30;20503;-75
2023/01/14 06:48:46;;;;;;;18.33;4.78;;;;;;;7.87;100.00;100864.84;4689092;30;20466;-75
2023/01/14 06:51:16;;;;;;;12.55;4.00;;;;;;;7.90;100.00;100867.84;4718531;30;20117;-74
2023/01/14 06:53:44;;;;;;;29.60;5.13;;;;;;;8.08;100.00;100861.34;4676613;30;20080;-75
2023/01/14 06:56:14;;;;;;;16.83;4.40;;;;;;;7.91;100.00;100844.25;4703849;30;20056;-74
2023/01/14 06:58:42;;;;;;;15.57;4.38;;;;;;;7.75;100.00;100843.22;4718392;30;20406;-74
2023/01/14 07:01:10;;;;;;;14.07;3.85;;;;;;;7.63;100.00;100837.91;4703300;30;20064;-74
2023/01/14 07:03:38;;;;;;;17.13;4.30;;;;;;;7.56;100.00;100841.84;4704140;30;20110;-74
2023/01/14 07:06:07;;;;;;;15.90;4.35;;;;;;;7.59;100.00;100822.38;4719169;30;20053;-75
2023/01/14 07:08:36;;;;;;;19.15;4.50;;;;;;;7.56;100.00;100826.41;4717807;30;20077;-75
2023/01/14 07:11:05;;;;;;;17.00;4.85;;;;;;;7.54;100.00;100816.88;4688839;30;20156;-75
2023/01/14 07:13:35;;;;;;;19.50;5.95;;;;;;;7.51;100.00;100804.63;4719721;30;20088;-75
2023/01/14 07:16:04;;;;;;;19.35;5.47;;;;;;;7.50;100.00;100811.09;4718210;30;20061;-75
2023/01/14 07:18:32;;;;;;;19.23;4.82;;;;;;;7.45;100.00;100798.28;4717679;30;20066;-75
2023/01/14 07:21:01;;;;;;;17.98;5.07;;;;;;;7.49;100.00;100790.50;4689240;30;20396;-75
2023/01/14 07:23:29;;;;;;;25.77;6.35;;;;;;;7.61;100.00;100780.38;4689389;30;20045;-75
2023/01/14 07:25:57;;;;;;;24.65;6.57;;;;;;;7.51;100.00;100774.00;4717256;30;20042;-75
2023/01/14 07:28:29;;;;;;;25.17;7.22;;;;;;;7.46;100.00;100770.13;4716857;30;20053;-74
2023/01/14 07:31:02;;;;;;;33.83;10.05;;;;;;;7.46;100.00;100763.91;4719570;30;20061;-73
2023/01/14 07:33:30;;;;;;;46.25;11.82;;;;;;;7.56;100.00;100745.06;4703131;30;20057;-73
2023/01/14 07:35:58;;;;;;;22.13;6.10;;;;;;;7.50;100.00;100740.63;4702965;30;20053;-74
2023/01/14 07:38:26;;;;;;;42.58;11.88;;;;;;;7.48;100.00;100740.06;4675569;30;20085;-74
2023/01/14 07:40:57;;;;;;;46.13;14.02;;;;;;;7.51;100.00;100731.44;4702992;30;20106;-73
2023/01/14 07:43:25;;;;;;;26.05;6.97;;;;;;;7.46;100.00;100717.81;4719324;30;20110;-74
2023/01/14 07:45:58;;;;;;;43.08;11.25;;;;;;;7.48;100.00;100715.69;4690014;30;20144;-74
2023/01/14 07:48:27;;;;;;;18.77;5.80;;;;;;;7.46;100.00;100717.81;4687338;30;20057;-75
2023/01/14 07:50:55;;;;;;;14.95;4.78;;;;;;;7.42;100.00;100705.81;4687935;30;20053;-74
2023/01/14 07:53:23;;;;;;;16.27;4.63;;;;;;;7.37;100.00;100703.03;4718484;30;20092;-73
2023/01/14 07:55:51;;;;;;;16.05;4.65;;;;;;;7.37;100.00;100686.78;4718408;30;20056;-74
2023/01/14 07:58:21;;;;;;;19.00;5.63;;;;;;;7.35;100.00;100678.88;4718034;30;20053;-74
2023/01/14 08:00:48;;;;;;;41.65;10.68;;;;;;;7.72;100.00;100662.03;4719086;30;20071;-74
2023/01/14 08:03:16;;;;;;;42.83;12.80;;;;;;;7.81;100.00;100662.38;4713915;30;20111;-73
2023/01/14 08:05:44;;;;;;;36.40;10.23;;;;;;;8.12;100.00;100655.41;4737086;30;20049;-73
2023/01/14 08:08:12;;;;;;;24.33;7.30;;;;;;;8.02;100.00;100645.25;4731647;30;20088;-73
2023/01/14 08:10:39;;;;;;;17.23;5.07;;;;;;;7.91;100.00;100638.06;4707745;30;20225;-73
2023/01/14 08:13:11;;;;;;;14.52;3.83;;;;;;;7.76;100.00;100624.34;4742035;30;20072;-72
2023/01/14 08:15:39;;;;;;;40.85;9.70;;;;;;;7.99;100.00;100618.66;4743116;30;20061;-70
2023/01/14 08:18:07;;;;;;;38.85;9.27;;;;;;;8.20;100.00;100611.53;4726954;30;20066;-74
2023/01/14 08:20:34;;;;;;;31.10;7.45;;;;;;;8.07;100.00;100595.66;4719091;30;20046;-74
2023/01/14 08:23:02;;;;;;;25.38;7.85;;;;;;;8.18;100.00;100593.84;4719404;30;20098;-74
2023/01/14 08:25:30;;;;;;;19.50;5.95;;;;;;;8.30;100.00;100591.81;4661815;30;20152;-74
2023/01/14 08:27:58;;;;;;;34.15;9.50;;;;;;;8.56;100.00;100578.44;4689540;30;20085;-74
2023/01/14 08:30:25;;;;;;;31.17;8.63;;;;;;;8.65;100.00;100568.75;4704485;30;20423;-74
2023/01/14 08:32:53;;;;;;;22.85;6.72;;;;;;;8.63;100.00;100568.19;4705384;30;20488;-74
2023/01/14 08:35:21;;;;;;;21.30;6.20;;;;;;;8.31;100.00;100560.84;4025617;30;10001054;-75
2023/01/14 08:37:49;;;;;;;24.70;6.72;;;;;;;8.49;100.00;100544.22;4699179;30;20062;-75
2023/01/14 08:40:20;;;;;;;22.17;6.70;;;;;;;8.46;100.00;100542.00;4685763;30;20053;-75
2023/01/14 08:42:48;;;;;;;19.67;7.35;;;;;;;8.42;100.00;100538.19;4687786;30;20086;-74
2023/01/14 08:45:16;;;;;;;28.48;8.10;;;;;;;8.87;100.00;100539.53;4704933;30;20178;-75
2023/01/14 08:47:44;;;;;;;19.40;5.95;;;;;;;8.69;100.00;100515.53;4701856;30;20126;-72
2023/01/14 08:50:12;;;;;;;24.52;6.57;;;;;;;8.56;100.00;100514.09;4690474;30;20054;-71
2023/01/14 08:52:40;;;;;;;18.90;5.15;;;;;;;8.56;100.00;100505.13;4696281;30;20124;-71
2023/01/14 08:55:08;;;;;;;22.55;6.25;;;;;;;8.68;100.00;100489.44;4682773;30;20080;-71
2023/01/14 08:57:36;;;;;;;22.52;6.90;;;;;;;8.83;100.00;100480.56;4668474;30;20050;-72
2023/01/14 09:00:06;;;;;;;26.05;6.60;;;;;;;9.02;100.00;100467.31;4683164;30;20086;-72
2023/01/14 09:02:34;;;;;;;14.50;4.07;;;;;;;8.72;100.00;100449.81;4696140;30;20062;-72
2023/01/14 09:05:02;;;;;;;18.13;5.30;;;;;;;8.78;100.00;100451.50;4696253;30;20054;-71
2023/01/14 09:18:35;;;;;;;17.17;5.32;;;;;;;10.14;100.00;100404.84;4718425;30;20095;-71
2023/01/14 09:21:03;;;;;;;16.05;5.00;;;;;;;9.86;100.00;100397.28;4721102;30;20049;-70
2023/01/14 09:23:31;;;;;;;16.30;4.78;;;;;;;9.79;100.00;100412.00;4716863;30;20814;-72
2023/01/14 09:25:59;;;;;;;12.65;4.28;;;;;;;9.65;100.00;100410.91;4701517;30;20116;-71
2023/01/14 09:28:27;;;;;;;14.55;4.75;;;;;;;9.37;100.00;100399.44;4717791;30;20057;-71
2023/01/14 09:30:55;;;;;;;19.77;5.50;;;;;;;9.59;100.00;100401.91;4701750;30;20101;-71
2023/01/14 09:33:22;;;;;;;21.13;5.07;;;;;;;9.77;100.00;100386.97;4701467;30;20407;-71
2023/01/14 09:35:50;;;;;;;12.93;4.10;;;;;;;9.54;100.00;100392.94;4715958;30;20132;-71
2023/01/14 09:38:18;;;;;;;18.02;4.28;;;;;;;9.80;100.00;100385.59;4686976;30;20088;-70
2023/01/14 09:40:46;;;;;;;10.95;3.40;;;;;;;9.67;100.00;100375.25;4701422;30;20070;-70
2023/01/14 09:43:16;;;;;;;14.25;4.70;;;;;;;9.65;100.00;100361.94;4715338;30;20061;-71
2023/01/14 09:45:44;;;;;;;11.70;3.38;;;;;;;9.70;100.00;100348.31;4714889;30;20053;-73
2023/01/14 09:48:13;;;;;;;8.93;2.90;;;;;;;9.31;100.00;100348.88;4717188;30;20143;-72
2023/01/14 09:51:02;;;;;;;13.60;3.88;;;;;;;9.20;100.00;100333.66;4686773;30;20057;-72
2023/01/14 09:53:52;;;;;;;11.63;4.15;;;;;;;9.01;100.00;100332.53;4715488;30;20115;-69
2023/01/14 09:56:35;;;;;;;12.48;3.58;;;;;;;9.11;100.00;100316.25;4715609;30;20127;-70
2023/01/14 09:59:16;;;;;;;8.20;2.75;;;;;;;9.00;100.00;100322.78;4701110;30;20065;-71
2023/01/14 10:02:27;;;;;;;9.52;3.67;;;;;;;9.27;100.00;100312.44;4700815;30;20542;-70
2023/01/14 10:05:28;;;;;;;7.72;2.78;;;;;;;9.35;100.00;100298.28;4700586;30;20136;-70
2023/01/14 10:07:57;;;;;;;6.75;2.55;;;;;;;8.83;100.00;100295.84;4691077;30;20172;-71
2023/01/14 10:10:26;;;;;;;6.18;2.20;;;;;;;8.53;100.00;100284.63;4655065;30;20096;-74
2023/01/14 10:12:56;;;;;;;7.75;2.70;;;;;;;8.32;100.00;100285.63;4711591;30;20064;-70
2023/01/14 10:15:32;;;;;;;7.00;2.30;;;;;;;8.20;100.00;100266.03;4683560;30;20529;-71
2023/01/14 10:18:12;;;;;;;7.57;2.70;;;;;;;8.10;100.00;100262.22;4683302;30;20542;-71
2023/01/14 10:21:01;;;;;;;9.52;2.97;;;;;;;8.39;100.00;100242.75;4668870;30;20064;-71
2023/01/14 10:23:37;;;;;;;11.00;2.70;;;;;;;8.31;100.00;100235.94;4683188;30;20104;-70
2023/01/14 10:26:14;;;;;;;6.68;2.33;;;;;;;8.66;100.00;100225.44;4697548;30;20799;-70
2023/01/14 10:28:45;;;;;;;7.55;2.55;;;;;;;8.53;100.00;100214.03;4697846;30;20062;-70
2023/01/14 10:31:21;;;;;;;6.25;2.90;;;;;;;8.68;100.00;100215.13;4682966;30;20058;-71
2023/01/14 10:33:49;;;;;;;7.78;2.83;;;;;;;9.19;100.00;100190.69;4683443;30;20139;-70
2023/01/14 10:36:22;;;;;;;8.38;3.22;;;;;;;9.64;100.00;100197.09;4689917;30;20063;-71
2023/01/14 10:38:51;;;;;;;8.82;2.83;;;;;;;9.46;100.00;100186.81;4701057;30;20059;-70
2023/01/14 10:41:48;;;;;;;10.77;3.47;;;;;;;9.99;100.00;100170.84;4700084;30;20144;-70
2023/01/14 10:44:27;;;;;;;7.57;2.50;;;;;;;10.38;100.00;100151.84;4715409;30;20415;-72
2023/01/14 10:46:58;;;;;;;7.20;2.65;;;;;;;10.26;100.00;100154.06;4714247;30;20491;-71
2023/01/14 10:49:37;;;;;;;10.23;2.97;;;;;;;10.30;100.00;100157.88;4715277;30;20096;-71
2023/01/14 10:52:32;;;;;;;9.00;3.25;;;;;;;10.34;100.00;100125.44;4700521;30;20142;-70
2023/01/14 10:55:10;;;;;;;8.10;2.85;;;;;;;10.46;100.00;100120.44;4700441;30;20065;-71
2023/01/14 10:57:44;;;;;;;6.32;2.63;;;;;;;10.75;100.00;100133.28;4715898;30;20462;-71
2023/01/14 11:00:36;;;;;;;5.88;2.42;;;;;;;10.87;100.00;100120.09;4700389;30;20120;-71
2023/01/14 11:03:09;;;;;;;6.80;2.50;;;;;;;11.18;100.00;100114.34;4688556;30;20057;-71
2023/01/14 11:05:39;;;;;;;7.40;2.97;;;;;;;11.20;100.00;100102.03;4714991;30;20566;-71
2023/01/14 11:08:49;;;;;;;6.30;2.33;;;;;;;11.04;100.00;100087.78;4685991;30;20065;-71
2023/01/14 11:11:25;;;;;;;6.63;2.30;;;;;;;10.85;100.00;100078.72;4681569;30;20077;-71
2023/01/14 11:13:55;;;;;;;7.50;2.58;;;;;;;10.54;100.00;100072.75;4658428;30;20113;-70
2023/01/14 11:16:25;;;;;;;3.85;1.63;;;;;;;10.81;100.00;100066.75;4701056;30;20531;-70
2023/01/14 11:19:02;;;;;;;6.18;2.20;;;;;;;11.18;100.00;100051.63;4686404;30;20063;-70
2023/01/14 11:21:41;;;;;;;6.75;2.22;;;;;;;11.05;100.00;100045.78;4706517;30;20065;-70
2023/01/14 11:24:45;;;;;;;6.97;2.33;;;;;;;10.95;100.00;100040.44;4690643;30;20054;-71
2023/01/14 11:27:16;;;;;;;4.53;2.08;;;;;;;11.11;100.00;100040.25;4712732;30;20054;-70
2023/01/14 11:29:50;;;;;;;7.00;2.05;;;;;;;10.89;100.00;100027.97;4719984;30;20141;-70
2023/01/14 11:32:24;;;;;;;4.72;1.75;;;;;;;10.91;100.00;100022.22;4701681;30;20097;-71
2023/01/14 11:34:55;;;;;;;6.70;2.60;;;;;;;10.86;100.00;100021.19;4686471;30;20162;-70
2023/01/14 11:37:53;;;;;;;5.13;1.77;;;;;;;11.04;100.00;99999.72;4718351;30;20053;-72
2023/01/14 11:41:28;;;;;;;5.15;2.13;;;;;;;10.68;100.00;100012.94;4722846;30;20053;-64
2023/01/14 11:43:15;;;;;;;6.07;1.70;;;;;;;10.56;100.00;99999.69;4738443;30;20061;-68
2023/01/14 11:45:43;;;;;;;3.13;1.40;;;;;;;10.45;100.00;99996.28;4721785;30;20113;-68
2023/01/14 11:48:28;;;;;;;4.10;1.70;;;;;;;10.07;100.00;99997.97;4737644;30;20064;-70
2023/01/14 11:51:17;;;;;;;4.47;1.85;;;;;;;10.56;100.00;99972.47;4730372;30;20057;-70
2023/01/14 11:53:48;;;;;;;3.95;1.70;;;;;;;10.51;100.00;99981.53;4723060;30;20087;-71
2023/01/14 11:56:36;;;;;;;2.58;1.30;;;;;;;10.01;100.00;99975.44;4707855;30;20454;-72
2023/01/14 11:59:28;;;;;;;3.88;1.60;;;;;;;9.63;100.00;99977.06;4721706;30;20061;-72
2023/01/14 12:02:16;;;;;;;4.20;1.45;;;;;;;9.57;100.00;99968.13;4689353;30;20058;-72
2023/01/14 12:05:01;;;;;;;4.78;1.83;;;;;;;9.57;100.00;99946.34;4689398;30;20137;-72
2023/01/14 12:07:55;;;;;;;2.65;1.52;;;;;;;9.57;100.00;99943.63;4717889;30;20057;-71
2023/01/14 12:10:30;;;;;;;3.55;1.67;;;;;;;10.24;100.00;99938.44;4721833;30;20136;-72
2023/01/14 12:16:48;;;;;;;3.65;1.60;;;;;;;10.31;100.00;99902.75;4720698;30;20057;-71